sensor_id;sensor_type;location;lat;lon;timestamp;temperature;humidity
9949;DHT22;5013;51.840;8.276;2023-04-03T00:00:31;4.10;99.90
9949;DHT22;5013;51.840;8.276;2023-04-03T00:02:56;4.00;99.90
9949;DHT22;5013;51.840;8.276;2023-04-03T00:05:22;4.00;99.90
9949;DHT22;5013;51.840;8.276;2023-04-03T00:07:48;3.90;99.90
9949;DHT22;5013;51.840;8.276;2023-04-03T00:10:15;3.90;99.90
9949;DHT22;5013;51.840;8.276;2023-04-03T00:12:41;3.90;99.90
9949;DHT22;5013;51.840;8.276;2023-04-03T00:15:06;3.80;99.90
9949;DHT22;5013;51.840;8.276;2023-04-03T00:17:32;3.80;99.90
9949;DHT22;5013;51.840;8.276;2023-04-03T00:19:58;3.80;99.90
9949;DHT22;5013;51.840;8.276;2023-04-03T00:22:23;3.80;1.00
9949;DHT22;5013;51.840;8.276;2023-04-03T00:24:49;3.70;99.90
9949;DHT22;5013;51.840;8.276;2023-04-03T00:27:14;3.70;1.00
9949;DHT22;5013;51.840;8.276;2023-04-03T00:29:41;3.60;1.00
9949;DHT22;5013;51.840;8.276;2023-04-03T00:32:06;3.60;1.00
9949;DHT22;5013;51.840;8.276;2023-04-03T00:34:32;3.60;1.00
9949;DHT22;5013;51.840;8.276;2023-04-03T00:36:57;3.60;1.00
9949;DHT22;5013;51.840;8.276;2023-04-03T00:39:23;3.60;1.00
9949;DHT22;5013;51.840;8.276;2023-04-03T00:41:48;3.50;1.00
9949;DHT22;5013;51.840;8.276;2023-04-03T00:44:22;3.50;1.00
9949;DHT22;5013;51.840;8.276;2023-04-03T00:47:09;3.50;1.00
9949;DHT22;5013;51.840;8.276;2023-04-03T00:49:37;3.50;1.00
9949;DHT22;5013;51.840;8.276;2023-04-03T00:52:05;3.40;1.00
9949;DHT22;5013;51.840;8.276;2023-04-03T00:54:32;3.40;1.00
9949;DHT22;5013;51.840;8.276;2023-04-03T00:57:00;3.40;1.00
9949;DHT22;5013;51.840;8.276;2023-04-03T00:59:32;3.30;1.00
9949;DHT22;5013;51.840;8.276;2023-04-03T01:01:59;3.30;1.00
9949;DHT22;5013;51.840;8.276;2023-04-03T01:04:31;3.30;1.00
9949;DHT22;5013;51.840;8.276;2023-04-03T01:07:04;3.20;1.00
9949;DHT22;5013;51.840;8.276;2023-04-03T01:09:31;3.20;1.00
9949;DHT22;5013;51.840;8.276;2023-04-03T01:12:32;3.10;1.00
9949;DHT22;5013;51.840;8.276;2023-04-03T01:15:00;3.10;1.00
9949;DHT22;5013;51.840;8.276;2023-04-03T01:17:28;3.10;1.00
9949;DHT22;5013;51.840;8.276;2023-04-03T01:25:17;3.00;1.00
9949;DHT22;5013;51.840;8.276;2023-04-03T01:27:43;2.90;1.00
9949;DHT22;5013;51.840;8.276;2023-04-03T01:30:09;2.90;1.00
9949;DHT22;5013;51.840;8.276;2023-04-03T01:32:35;2.90;30.50
9949;DHT22;5013;51.840;8.276;2023-04-03T01:35:00;2.80;53.30
9949;DHT22;5013;51.840;8.276;2023-04-03T01:37:26;2.80;75.80
9949;DHT22;5013;51.840;8.276;2023-04-03T01:39:51;2.80;66.30
9949;DHT22;5013;51.840;8.276;2023-04-03T01:42:17;2.80;1.00
9949;DHT22;5013;51.840;8.276;2023-04-03T01:44:43;2.70;99.90
9949;DHT22;5013;51.840;8.276;2023-04-03T01:47:08;2.70;99.90
9949;DHT22;5013;51.840;8.276;2023-04-03T01:49:34;2.70;99.90
9949;DHT22;5013;51.840;8.276;2023-04-03T01:51:59;2.60;99.90
9949;DHT22;5013;51.840;8.276;2023-04-03T01:54:25;2.60;99.90
9949;DHT22;5013;51.840;8.276;2023-04-03T01:56:51;2.60;99.90
9949;DHT22;5013;51.840;8.276;2023-04-03T01:59:17;2.60;99.90
9949;DHT22;5013;51.840;8.276;2023-04-03T02:01:44;2.60;99.90
9949;DHT22;5013;51.840;8.276;2023-04-03T02:04:11;2.50;99.90
9949;DHT22;5013;51.840;8.276;2023-04-03T02:06:37;2.50;99.90
9949;DHT22;5013;51.840;8.276;2023-04-03T02:09:03;2.50;99.90
9949;DHT22;5013;51.840;8.276;2023-04-03T02:11:29;2.50;99.90
9949;DHT22;5013;51.840;8.276;2023-04-03T02:13:55;2.40;99.90
9949;DHT22;5013;51.840;8.276;2023-04-03T02:16:20;2.40;99.90
9949;DHT22;5013;51.840;8.276;2023-04-03T02:18:46;2.40;1.00
9949;DHT22;5013;51.840;8.276;2023-04-03T02:21:11;2.30;1.00
9949;DHT22;5013;51.840;8.276;2023-04-03T02:23:37;2.30;99.90
9949;DHT22;5013;51.840;8.276;2023-04-03T02:26:07;2.30;1.00
9949;DHT22;5013;51.840;8.276;2023-04-03T02:28:34;2.30;1.00
9949;DHT22;5013;51.840;8.276;2023-04-03T02:30:59;2.30;1.00
9949;DHT22;5013;51.840;8.276;2023-04-03T02:33:25;2.30;1.00
9949;DHT22;5013;51.840;8.276;2023-04-03T02:35:55;2.20;1.00
9949;DHT22;5013;51.840;8.276;2023-04-03T02:38:21;2.20;1.00
9949;DHT22;5013;51.840;8.276;2023-04-03T02:40:47;2.20;1.00
9949;DHT22;5013;51.840;8.276;2023-04-03T02:43:13;2.10;1.00
9949;DHT22;5013;51.840;8.276;2023-04-03T02:45:38;2.10;1.00
9949;DHT22;5013;51.840;8.276;2023-04-03T02:48:04;2.10;1.00
9949;DHT22;5013;51.840;8.276;2023-04-03T02:50:30;2.00;1.00
9949;DHT22;5013;51.840;8.276;2023-04-03T02:52:55;2.00;1.00
9949;DHT22;5013;51.840;8.276;2023-04-03T02:55:21;2.00;1.00
9949;DHT22;5013;51.840;8.276;2023-04-03T02:57:47;1.90;1.00
9949;DHT22;5013;51.840;8.276;2023-04-03T03:00:12;1.90;1.00
9949;DHT22;5013;51.840;8.276;2023-04-03T03:02:38;1.90;1.00
9949;DHT22;5013;51.840;8.276;2023-04-03T03:05:04;1.80;1.00
9949;DHT22;5013;51.840;8.276;2023-04-03T03:07:30;1.80;1.00
9949;DHT22;5013;51.840;8.276;2023-04-03T03:09:55;1.80;1.00
9949;DHT22;5013;51.840;8.276;2023-04-03T03:12:21;1.70;1.00
9949;DHT22;5013;51.840;8.276;2023-04-03T03:14:47;1.70;1.00
9949;DHT22;5013;51.840;8.276;2023-04-03T03:17:13;1.70;1.00
9949;DHT22;5013;51.840;8.276;2023-04-03T03:19:39;1.70;1.00
9949;DHT22;5013;51.840;8.276;2023-04-03T03:22:04;1.70;1.00
9949;DHT22;5013;51.840;8.276;2023-04-03T03:24:30;1.60;1.00
9949;DHT22;5013;51.840;8.276;2023-04-03T03:26:56;1.60;1.00
9949;DHT22;5013;51.840;8.276;2023-04-03T03:29:21;1.70;1.00
9949;DHT22;5013;51.840;8.276;2023-04-03T03:31:47;1.60;1.00
9949;DHT22;5013;51.840;8.276;2023-04-03T03:34:13;1.50;1.00
9949;DHT22;5013;51.840;8.276;2023-04-03T03:36:38;1.50;1.00
9949;DHT22;5013;51.840;8.276;2023-04-03T03:39:05;1.50;1.00
9949;DHT22;5013;51.840;8.276;2023-04-03T03:41:30;1.50;1.00
9949;DHT22;5013;51.840;8.276;2023-04-03T03:43:56;1.50;1.00
9949;DHT22;5013;51.840;8.276;2023-04-03T03:46:22;1.40;1.00
9949;DHT22;5013;51.840;8.276;2023-04-03T03:48:48;1.40;1.00
9949;DHT22;5013;51.840;8.276;2023-04-03T03:51:13;1.40;70.60
9949;DHT22;5013;51.840;8.276;2023-04-03T03:53:39;1.30;1.00
9949;DHT22;5013;51.840;8.276;2023-04-03T03:56:05;1.30;95.50
9949;DHT22;5013;51.840;8.276;2023-04-03T03:58:31;1.30;95.40
9949;DHT22;5013;51.840;8.276;2023-04-03T04:01:01;1.30;99.90
9949;DHT22;5013;51.840;8.276;2023-04-03T04:03:27;1.20;99.90
9949;DHT22;5013;51.840;8.276;2023-04-03T04:05:52;1.30;99.90
9949;DHT22;5013;51.840;8.276;2023-04-03T04:08:18;1.20;99.90
9949;DHT22;5013;51.840;8.276;2023-04-03T04:10:44;1.20;99.90
9949;DHT22;5013;51.840;8.276;2023-04-03T04:13:09;1.20;93.60
9949;DHT22;5013;51.840;8.276;2023-04-03T04:15:35;1.20;99.90
9949;DHT22;5013;51.840;8.276;2023-04-03T04:18:00;1.10;99.90
9949;DHT22;5013;51.840;8.276;2023-04-03T04:20:26;1.10;99.90
9949;DHT22;5013;51.840;8.276;2023-04-03T04:22:51;1.10;91.70
9949;DHT22;5013;51.840;8.276;2023-04-03T04:25:17;1.00;66.30
9949;DHT22;5013;51.840;8.276;2023-04-03T04:27:42;1.00;1.70
9949;DHT22;5013;51.840;8.276;2023-04-03T04:30:09;1.00;99.90
9949;DHT22;5013;51.840;8.276;2023-04-03T04:32:35;1.10;8.00
9949;DHT22;5013;51.840;8.276;2023-04-03T04:35:00;1.00;99.90
9949;DHT22;5013;51.840;8.276;2023-04-03T04:37:26;1.00;99.90
9949;DHT22;5013;51.840;8.276;2023-04-03T04:39:52;1.00;1.00
9949;DHT22;5013;51.840;8.276;2023-04-03T04:42:17;0.90;99.90
9949;DHT22;5013;51.840;8.276;2023-04-03T04:44:43;0.90;99.90
9949;DHT22;5013;51.840;8.276;2023-04-03T04:47:08;0.90;44.10
9949;DHT22;5013;51.840;8.276;2023-04-03T04:49:34;0.90;99.90
9949;DHT22;5013;51.840;8.276;2023-04-03T04:52:00;0.90;99.90
9949;DHT22;5013;51.840;8.276;2023-04-03T04:54:25;0.90;99.90
9949;DHT22;5013;51.840;8.276;2023-04-03T04:56:51;0.90;99.90
9949;DHT22;5013;51.840;8.276;2023-04-03T04:59:16;0.90;99.90
9949;DHT22;5013;51.840;8.276;2023-04-03T05:01:42;0.90;99.90
9949;DHT22;5013;51.840;8.276;2023-04-03T05:04:08;0.90;99.90
9949;DHT22;5013;51.840;8.276;2023-04-03T05:06:34;0.90;99.90
9949;DHT22;5013;51.840;8.276;2023-04-03T05:09:00;0.80;99.90
9949;DHT22;5013;51.840;8.276;2023-04-03T05:11:26;0.80;99.90
9949;DHT22;5013;51.840;8.276;2023-04-03T05:13:52;0.90;99.90
9949;DHT22;5013;51.840;8.276;2023-04-03T05:16:17;0.80;99.90
9949;DHT22;5013;51.840;8.276;2023-04-03T05:18:43;0.90;99.90
9949;DHT22;5013;51.840;8.276;2023-04-03T05:21:08;0.90;99.90
9949;DHT22;5013;51.840;8.276;2023-04-03T05:23:34;0.90;99.90
9949;DHT22;5013;51.840;8.276;2023-04-03T05:26:00;0.90;99.90
9949;DHT22;5013;51.840;8.276;2023-04-03T05:28:25;0.90;99.90
9949;DHT22;5013;51.840;8.276;2023-04-03T05:30:58;0.90;99.90
9949;DHT22;5013;51.840;8.276;2023-04-03T05:33:24;0.90;99.90
9949;DHT22;5013;51.840;8.276;2023-04-03T05:35:52;0.90;99.90
9949;DHT22;5013;51.840;8.276;2023-04-03T05:38:18;1.00;99.90
9949;DHT22;5013;51.840;8.276;2023-04-03T05:40:44;1.00;99.90
9949;DHT22;5013;51.840;8.276;2023-04-03T05:43:09;1.00;99.90
9949;DHT22;5013;51.840;8.276;2023-04-03T05:45:35;1.00;1.00
9949;DHT22;5013;51.840;8.276;2023-04-03T05:48:01;1.10;15.90
9949;DHT22;5013;51.840;8.276;2023-04-03T05:50:27;1.10;1.00
9949;DHT22;5013;51.840;8.276;2023-04-03T05:52:56;1.20;1.00
9949;DHT22;5013;51.840;8.276;2023-04-03T05:55:22;1.20;1.00
9949;DHT22;5013;51.840;8.276;2023-04-03T05:57:48;1.30;58.20
9949;DHT22;5013;51.840;8.276;2023-04-03T06:00:14;1.40;1.00
9949;DHT22;5013;51.840;8.276;2023-04-03T06:02:43;1.50;1.00
9949;DHT22;5013;51.840;8.276;2023-04-03T06:05:09;1.50;1.00
9949;DHT22;5013;51.840;8.276;2023-04-03T06:07:37;1.50;1.00
9949;DHT22;5013;51.840;8.276;2023-04-03T06:10:03;1.60;99.90
9949;DHT22;5013;51.840;8.276;2023-04-03T06:12:29;1.70;1.00
9949;DHT22;5013;51.840;8.276;2023-04-03T06:14:55;1.80;99.90
9949;DHT22;5013;51.840;8.276;2023-04-03T06:17:21;2.00;99.90
9949;DHT22;5013;51.840;8.276;2023-04-03T06:19:47;2.20;4.20
9949;DHT22;5013;51.840;8.276;2023-04-03T06:22:13;2.40;1.00
9949;DHT22;5013;51.840;8.276;2023-04-03T06:24:39;2.60;1.00
9949;DHT22;5013;51.840;8.276;2023-04-03T06:27:05;2.80;1.00
9949;DHT22;5013;51.840;8.276;2023-04-03T06:29:31;2.90;99.90
9949;DHT22;5013;51.840;8.276;2023-04-03T06:31:56;3.10;81.60
9949;DHT22;5013;51.840;8.276;2023-04-03T06:34:22;3.40;99.90
9949;DHT22;5013;51.840;8.276;2023-04-03T06:36:48;3.80;1.00
9949;DHT22;5013;51.840;8.276;2023-04-03T06:39:23;3.80;99.90
9949;DHT22;5013;51.840;8.276;2023-04-03T06:41:50;3.90;97.50
9949;DHT22;5013;51.840;8.276;2023-04-03T06:44:16;4.00;99.90
9949;DHT22;5013;51.840;8.276;2023-04-03T06:46:43;4.10;98.10
9949;DHT22;5013;51.840;8.276;2023-04-03T06:49:09;4.10;1.00
9949;DHT22;5013;51.840;8.276;2023-04-03T06:51:36;4.00;1.00
9949;DHT22;5013;51.840;8.276;2023-04-03T06:54:05;3.90;46.10
9949;DHT22;5013;51.840;8.276;2023-04-03T06:56:32;4.00;99.90
9949;DHT22;5013;51.840;8.276;2023-04-03T06:58:57;4.10;99.90
9949;DHT22;5013;51.840;8.276;2023-04-03T07:01:29;4.20;53.20
9949;DHT22;5013;51.840;8.276;2023-04-03T07:03:56;4.30;1.00
9949;DHT22;5013;51.840;8.276;2023-04-03T07:06:22;4.40;1.00
9949;DHT22;5013;51.840;8.276;2023-04-03T07:08:48;4.30;1.00
9949;DHT22;5013;51.840;8.276;2023-04-03T07:11:15;4.40;1.00
9949;DHT22;5013;51.840;8.276;2023-04-03T07:13:41;4.60;1.00
9949;DHT22;5013;51.840;8.276;2023-04-03T07:16:07;4.80;1.00
9949;DHT22;5013;51.840;8.276;2023-04-03T07:18:33;4.80;1.00
9949;DHT22;5013;51.840;8.276;2023-04-03T07:20:59;4.70;1.00
9949;DHT22;5013;51.840;8.276;2023-04-03T07:23:24;4.60;1.00
9949;DHT22;5013;51.840;8.276;2023-04-03T07:25:51;4.60;8.30
9949;DHT22;5013;51.840;8.276;2023-04-03T07:28:18;4.70;1.00
9949;DHT22;5013;51.840;8.276;2023-04-03T07:30:45;4.70;1.00
9949;DHT22;5013;51.840;8.276;2023-04-03T07:33:11;4.80;1.00
9949;DHT22;5013;51.840;8.276;2023-04-03T07:35:37;5.00;1.00
9949;DHT22;5013;51.840;8.276;2023-04-03T07:38:03;5.00;1.00
9949;DHT22;5013;51.840;8.276;2023-04-03T07:40:28;5.00;1.00
9949;DHT22;5013;51.840;8.276;2023-04-03T07:42:54;5.20;1.00
9949;DHT22;5013;51.840;8.276;2023-04-03T07:45:22;5.20;99.90
9949;DHT22;5013;51.840;8.276;2023-04-03T07:47:48;5.40;1.00
9949;DHT22;5013;51.840;8.276;2023-04-03T07:50:14;5.40;99.90
9949;DHT22;5013;51.840;8.276;2023-04-03T07:52:39;5.30;99.90
9949;DHT22;5013;51.840;8.276;2023-04-03T07:55:06;5.40;1.00
9949;DHT22;5013;51.840;8.276;2023-04-03T07:57:32;5.50;99.90
9949;DHT22;5013;51.840;8.276;2023-04-03T07:59:57;5.50;99.90
9949;DHT22;5013;51.840;8.276;2023-04-03T08:02:23;5.60;99.90
9949;DHT22;5013;51.840;8.276;2023-04-03T08:04:48;5.70;99.90
9949;DHT22;5013;51.840;8.276;2023-04-03T08:07:14;5.80;99.90
9949;DHT22;5013;51.840;8.276;2023-04-03T08:09:39;5.80;99.90
9949;DHT22;5013;51.840;8.276;2023-04-03T08:12:05;5.80;99.90
9949;DHT22;5013;51.840;8.276;2023-04-03T08:14:32;5.90;99.90
9949;DHT22;5013;51.840;8.276;2023-04-03T08:17:00;5.80;99.90
9949;DHT22;5013;51.840;8.276;2023-04-03T08:19:26;5.80;99.90
9949;DHT22;5013;51.840;8.276;2023-04-03T08:21:53;5.90;99.90
9949;DHT22;5013;51.840;8.276;2023-04-03T08:24:19;6.10;99.90
9949;DHT22;5013;51.840;8.276;2023-04-03T08:26:45;6.20;99.90
9949;DHT22;5013;51.840;8.276;2023-04-03T08:29:11;6.30;99.90
9949;DHT22;5013;51.840;8.276;2023-04-03T08:31:36;6.60;99.90
9949;DHT22;5013;51.840;8.276;2023-04-03T08:34:02;6.60;91.90
9949;DHT22;5013;51.840;8.276;2023-04-03T08:36:29;6.70;69.70
9949;DHT22;5013;51.840;8.276;2023-04-03T08:38:56;6.70;39.70
9949;DHT22;5013;51.840;8.276;2023-04-03T08:41:35;6.90;58.30
9949;DHT22;5013;51.840;8.276;2023-04-03T08:44:25;7.00;32.30
9949;DHT22;5013;51.840;8.276;2023-04-03T08:49:37;7.30;1.00
9949;DHT22;5013;51.840;8.276;2023-04-03T08:52:11;7.30;1.00
9949;DHT22;5013;51.840;8.276;2023-04-03T08:54:52;7.40;1.00
9949;DHT22;5013;51.840;8.276;2023-04-03T08:57:28;7.40;1.00
9949;DHT22;5013;51.840;8.276;2023-04-03T08:59:54;7.40;1.00
9949;DHT22;5013;51.840;8.276;2023-04-03T09:02:25;7.40;1.00
9949;DHT22;5013;51.840;8.276;2023-04-03T09:04:53;7.70;1.00
9949;DHT22;5013;51.840;8.276;2023-04-03T09:07:43;7.80;1.00
9949;DHT22;5013;51.840;8.276;2023-04-03T09:10:12;7.90;1.00
9949;DHT22;5013;51.840;8.276;2023-04-03T09:12:43;7.90;1.00
9949;DHT22;5013;51.840;8.276;2023-04-03T09:15:23;8.10;1.00
9949;DHT22;5013;51.840;8.276;2023-04-03T09:23:36;8.10;1.00
9949;DHT22;5013;51.840;8.276;2023-04-03T09:26:19;8.10;1.00
9949;DHT22;5013;51.840;8.276;2023-04-03T09:28:46;8.40;1.00
9949;DHT22;5013;51.840;8.276;2023-04-03T09:31:22;8.50;1.00
9949;DHT22;5013;51.840;8.276;2023-04-03T09:34:02;8.40;1.00
9949;DHT22;5013;51.840;8.276;2023-04-03T09:36:58;8.40;1.00
9949;DHT22;5013;51.840;8.276;2023-04-03T09:39:26;8.30;1.00
9949;DHT22;5013;51.840;8.276;2023-04-03T09:44:28;8.40;1.00
9949;DHT22;5013;51.840;8.276;2023-04-03T09:46:54;8.50;1.00
9949;DHT22;5013;51.840;8.276;2023-04-03T09:49:19;8.60;1.00
9949;DHT22;5013;51.840;8.276;2023-04-03T09:51:45;8.50;1.00
9949;DHT22;5013;51.840;8.276;2023-04-03T09:56:55;8.50;1.00
9949;DHT22;5013;51.840;8.276;2023-04-03T09:59:22;8.50;1.00
9949;DHT22;5013;51.840;8.276;2023-04-03T10:02:00;8.60;1.00
9949;DHT22;5013;51.840;8.276;2023-04-03T10:04:37;8.50;1.00
9949;DHT22;5013;51.840;8.276;2023-04-03T10:07:03;8.60;1.00
9949;DHT22;5013;51.840;8.276;2023-04-03T10:09:31;8.70;1.00
9949;DHT22;5013;51.840;8.276;2023-04-03T10:14:42;9.00;1.00
9949;DHT22;5013;51.840;8.276;2023-04-03T10:20:43;9.20;1.00
9949;DHT22;5013;51.840;8.276;2023-04-03T10:23:26;9.10;1.00
9949;DHT22;5013;51.840;8.276;2023-04-03T10:26:29;9.00;1.00
9949;DHT22;5013;51.840;8.276;2023-04-03T10:29:27;8.80;1.00
9949;DHT22;5013;51.840;8.276;2023-04-03T10:34:43;9.00;1.00
9949;DHT22;5013;51.840;8.276;2023-04-03T10:40:23;9.40;1.00
9949;DHT22;5013;51.840;8.276;2023-04-03T10:43:09;9.50;1.00
9949;DHT22;5013;51.840;8.276;2023-04-03T10:48:52;10.00;1.00
9949;DHT22;5013;51.840;8.276;2023-04-03T10:51:28;9.80;1.00
9949;DHT22;5013;51.840;8.276;2023-04-03T10:54:08;9.80;1.00
9949;DHT22;5013;51.840;8.276;2023-04-03T10:56:42;9.90;1.00
9949;DHT22;5013;51.840;8.276;2023-04-03T10:59:37;9.70;1.00
9949;DHT22;5013;51.840;8.276;2023-04-03T11:02:22;9.50;1.00
9949;DHT22;5013;51.840;8.276;2023-04-03T11:04:53;9.60;1.00
9949;DHT22;5013;51.840;8.276;2023-04-03T11:07:29;9.70;1.00
9949;DHT22;5013;51.840;8.276;2023-04-03T11:10:05;9.50;1.00
9949;DHT22;5013;51.840;8.276;2023-04-03T11:12:42;9.40;1.00
9949;DHT22;5013;51.840;8.276;2023-04-03T11:15:13;9.20;1.00
9949;DHT22;5013;51.840;8.276;2023-04-03T11:17:54;9.20;1.00
9949;DHT22;5013;51.840;8.276;2023-04-03T11:20:30;9.40;1.00
9949;DHT22;5013;51.840;8.276;2023-04-03T11:23:25;9.70;1.00
9949;DHT22;5013;51.840;8.276;2023-04-03T11:25:53;10.20;1.00
9949;DHT22;5013;51.840;8.276;2023-04-03T11:28:22;10.50;1.00
9949;DHT22;5013;51.840;8.276;2023-04-03T11:31:11;10.50;1.00
9949;DHT22;5013;51.840;8.276;2023-04-03T11:36:43;10.30;1.00
9949;DHT22;5013;51.840;8.276;2023-04-03T11:39:24;9.90;1.00
9949;DHT22;5013;51.840;8.276;2023-04-03T11:41:51;9.60;1.00
9949;DHT22;5013;51.840;8.276;2023-04-03T11:44:46;9.20;1.00
9949;DHT22;5013;51.840;8.276;2023-04-03T11:47:12;9.10;1.00
9949;DHT22;5013;51.840;8.276;2023-04-03T12:14:03;10.40;1.00
9949;DHT22;5013;51.840;8.276;2023-04-03T12:16:33;10.40;1.00
9949;DHT22;5013;51.840;8.276;2023-04-03T12:19:30;10.30;1.00
9949;DHT22;5013;51.840;8.276;2023-04-03T12:37:48;11.60;1.00
9949;DHT22;5013;51.840;8.276;2023-04-03T12:45:48;11.50;1.00
9949;DHT22;5013;51.840;8.276;2023-04-03T12:48:18;11.10;1.00
9949;DHT22;5013;51.840;8.276;2023-04-03T12:50:46;11.10;1.00
9949;DHT22;5013;51.840;8.276;2023-04-03T12:53:22;11.40;1.00
9949;DHT22;5013;51.840;8.276;2023-04-03T12:55:56;11.30;1.00
9949;DHT22;5013;51.840;8.276;2023-04-03T12:58:23;11.20;1.00
9949;DHT22;5013;51.840;8.276;2023-04-03T13:01:09;11.50;1.00
9949;DHT22;5013;51.840;8.276;2023-04-03T13:03:39;11.60;1.00
9949;DHT22;5013;51.840;8.276;2023-04-03T13:06:07;11.70;1.00
9949;DHT22;5013;51.840;8.276;2023-04-03T13:08:32;11.30;1.00
9949;DHT22;5013;51.840;8.276;2023-04-03T13:11:02;11.30;1.00
9949;DHT22;5013;51.840;8.276;2023-04-03T13:13:28;10.80;1.00
9949;DHT22;5013;51.840;8.276;2023-04-03T13:15:54;10.80;1.00
9949;DHT22;5013;51.840;8.276;2023-04-03T13:18:27;11.10;1.00
9949;DHT22;5013;51.840;8.276;2023-04-03T13:20:58;10.90;1.00
9949;DHT22;5013;51.840;8.276;2023-04-03T13:23:24;11.30;1.00
9949;DHT22;5013;51.840;8.276;2023-04-03T13:25:50;11.50;1.00
9949;DHT22;5013;51.840;8.276;2023-04-03T13:28:22;11.70;1.00
9949;DHT22;5013;51.840;8.276;2023-04-03T13:31:05;11.50;1.00
9949;DHT22;5013;51.840;8.276;2023-04-03T13:33:34;11.00;1.00
9949;DHT22;5013;51.840;8.276;2023-04-03T13:36:16;10.90;1.00
9949;DHT22;5013;51.840;8.276;2023-04-03T13:38:42;11.10;1.00
9949;DHT22;5013;51.840;8.276;2023-04-03T13:41:29;10.90;1.00
9949;DHT22;5013;51.840;8.276;2023-04-03T13:43:56;11.00;1.00
9949;DHT22;5013;51.840;8.276;2023-04-03T13:46:25;10.50;1.00
9949;DHT22;5013;51.840;8.276;2023-04-03T13:48:54;10.20;1.00
9949;DHT22;5013;51.840;8.276;2023-04-03T13:51:28;9.80;1.00
9949;DHT22;5013;51.840;8.276;2023-04-03T13:54:10;9.50;1.00
9949;DHT22;5013;51.840;8.276;2023-04-03T13:56:39;9.30;1.00
9949;DHT22;5013;51.840;8.276;2023-04-03T14:04:25;8.90;1.00
9949;DHT22;5013;51.840;8.276;2023-04-03T14:06:52;9.20;1.00
9949;DHT22;5013;51.840;8.276;2023-04-03T14:09:19;9.20;1.00
9949;DHT22;5013;51.840;8.276;2023-04-03T14:11:48;9.20;1.00
9949;DHT22;5013;51.840;8.276;2023-04-03T14:14:20;9.30;1.00
9949;DHT22;5013;51.840;8.276;2023-04-03T14:16:51;9.50;1.00
9949;DHT22;5013;51.840;8.276;2023-04-03T14:19:23;9.70;1.00
9949;DHT22;5013;51.840;8.276;2023-04-03T14:21:50;10.00;1.00
9949;DHT22;5013;51.840;8.276;2023-04-03T14:24:16;10.10;1.00
9949;DHT22;5013;51.840;8.276;2023-04-03T14:26:43;10.20;1.00
9949;DHT22;5013;51.840;8.276;2023-04-03T14:29:10;10.20;1.00
9949;DHT22;5013;51.840;8.276;2023-04-03T14:31:36;10.10;1.00
9949;DHT22;5013;51.840;8.276;2023-04-03T14:34:02;10.10;1.00
9949;DHT22;5013;51.840;8.276;2023-04-03T14:36:28;10.10;1.00
9949;DHT22;5013;51.840;8.276;2023-04-03T14:38:55;10.20;1.00
9949;DHT22;5013;51.840;8.276;2023-04-03T14:41:23;10.30;1.00
9949;DHT22;5013;51.840;8.276;2023-04-03T14:43:49;10.30;1.00
9949;DHT22;5013;51.840;8.276;2023-04-03T14:46:25;10.30;1.00
9949;DHT22;5013;51.840;8.276;2023-04-03T14:48:51;10.30;1.00
9949;DHT22;5013;51.840;8.276;2023-04-03T14:51:17;10.20;1.00
9949;DHT22;5013;51.840;8.276;2023-04-03T14:53:43;10.30;1.00
9949;DHT22;5013;51.840;8.276;2023-04-03T14:56:17;10.40;1.00
9949;DHT22;5013;51.840;8.276;2023-04-03T14:58:43;10.60;1.00
9949;DHT22;5013;51.840;8.276;2023-04-03T15:01:10;10.60;1.00
9949;DHT22;5013;51.840;8.276;2023-04-03T15:03:37;10.70;1.00
9949;DHT22;5013;51.840;8.276;2023-04-03T15:06:03;10.70;1.00
9949;DHT22;5013;51.840;8.276;2023-04-03T15:08:28;10.50;1.00
9949;DHT22;5013;51.840;8.276;2023-04-03T15:10:55;10.50;1.00
9949;DHT22;5013;51.840;8.276;2023-04-03T15:13:22;10.30;1.00
9949;DHT22;5013;51.840;8.276;2023-04-03T15:15:49;10.40;1.00
9949;DHT22;5013;51.840;8.276;2023-04-03T15:18:21;10.30;1.00
9949;DHT22;5013;51.840;8.276;2023-04-03T15:20:47;10.40;1.00
9949;DHT22;5013;51.840;8.276;2023-04-03T15:23:14;10.30;1.00
9949;DHT22;5013;51.840;8.276;2023-04-03T15:25:45;10.10;1.00
9949;DHT22;5013;51.840;8.276;2023-04-03T15:30:53;9.50;1.00
9949;DHT22;5013;51.840;8.276;2023-04-03T15:33:19;9.40;1.00
9949;DHT22;5013;51.840;8.276;2023-04-03T15:35:45;9.30;1.00
9949;DHT22;5013;51.840;8.276;2023-04-03T15:38:11;9.40;1.00
9949;DHT22;5013;51.840;8.276;2023-04-03T15:40:37;9.60;1.00
9949;DHT22;5013;51.840;8.276;2023-04-03T15:43:04;9.70;1.00
9949;DHT22;5013;51.840;8.276;2023-04-03T15:45:30;9.90;1.00
9949;DHT22;5013;51.840;8.276;2023-04-03T15:47:57;10.00;1.00
9949;DHT22;5013;51.840;8.276;2023-04-03T15:50:23;10.00;1.00
9949;DHT22;5013;51.840;8.276;2023-04-03T15:52:50;9.80;1.00
9949;DHT22;5013;51.840;8.276;2023-04-03T15:55:23;9.80;1.00
9949;DHT22;5013;51.840;8.276;2023-04-03T15:57:48;9.60;1.00
9949;DHT22;5013;51.840;8.276;2023-04-03T16:00:14;9.30;1.00
9949;DHT22;5013;51.840;8.276;2023-04-03T16:02:41;9.20;1.00
9949;DHT22;5013;51.840;8.276;2023-04-03T16:05:09;9.00;1.00
9949;DHT22;5013;51.840;8.276;2023-04-03T16:07:38;9.10;1.00
9949;DHT22;5013;51.840;8.276;2023-04-03T16:10:04;9.20;1.00
9949;DHT22;5013;51.840;8.276;2023-04-03T16:12:30;9.20;1.00
9949;DHT22;5013;51.840;8.276;2023-04-03T16:14:56;9.10;1.00
9949;DHT22;5013;51.840;8.276;2023-04-03T16:17:21;9.20;1.00
9949;DHT22;5013;51.840;8.276;2023-04-03T16:19:47;9.10;1.00
9949;DHT22;5013;51.840;8.276;2023-04-03T16:22:13;9.00;1.00
9949;DHT22;5013;51.840;8.276;2023-04-03T16:24:38;9.00;1.00
9949;DHT22;5013;51.840;8.276;2023-04-03T16:27:04;9.00;1.00
9949;DHT22;5013;51.840;8.276;2023-04-03T16:29:30;8.90;1.00
9949;DHT22;5013;51.840;8.276;2023-04-03T16:31:56;8.90;1.00
9949;DHT22;5013;51.840;8.276;2023-04-03T16:34:23;8.80;1.00
9949;DHT22;5013;51.840;8.276;2023-04-03T16:36:51;8.80;1.00
9949;DHT22;5013;51.840;8.276;2023-04-03T16:39:18;8.80;1.00
9949;DHT22;5013;51.840;8.276;2023-04-03T16:41:43;8.70;1.00
9949;DHT22;5013;51.840;8.276;2023-04-03T16:44:10;8.70;1.00
9949;DHT22;5013;51.840;8.276;2023-04-03T16:46:36;8.80;1.00
9949;DHT22;5013;51.840;8.276;2023-04-03T16:49:02;8.80;1.00
9949;DHT22;5013;51.840;8.276;2023-04-03T16:51:28;8.80;1.00
9949;DHT22;5013;51.840;8.276;2023-04-03T16:53:54;8.90;1.00
9949;DHT22;5013;51.840;8.276;2023-04-03T16:56:19;8.80;1.00
9949;DHT22;5013;51.840;8.276;2023-04-03T16:58:45;8.80;1.00
9949;DHT22;5013;51.840;8.276;2023-04-03T17:01:13;8.70;1.00
9949;DHT22;5013;51.840;8.276;2023-04-03T17:03:39;8.50;1.00
9949;DHT22;5013;51.840;8.276;2023-04-03T17:06:05;8.50;1.00
9949;DHT22;5013;51.840;8.276;2023-04-03T17:08:31;8.40;1.00
9949;DHT22;5013;51.840;8.276;2023-04-03T17:10:57;8.40;1.00
9949;DHT22;5013;51.840;8.276;2023-04-03T17:13:22;8.40;1.00
9949;DHT22;5013;51.840;8.276;2023-04-03T17:15:48;8.30;1.00
9949;DHT22;5013;51.840;8.276;2023-04-03T17:18:14;8.20;1.00
9949;DHT22;5013;51.840;8.276;2023-04-03T17:20:40;8.10;1.00
9949;DHT22;5013;51.840;8.276;2023-04-03T17:23:06;8.10;1.00
9949;DHT22;5013;51.840;8.276;2023-04-03T17:25:31;8.00;1.00
9949;DHT22;5013;51.840;8.276;2023-04-03T17:27:57;7.90;1.00
9949;DHT22;5013;51.840;8.276;2023-04-03T17:30:23;7.80;1.00
9949;DHT22;5013;51.840;8.276;2023-04-03T17:32:48;7.80;1.00
9949;DHT22;5013;51.840;8.276;2023-04-03T17:35:14;7.70;1.00
9949;DHT22;5013;51.840;8.276;2023-04-03T17:37:40;7.60;1.00
9949;DHT22;5013;51.840;8.276;2023-04-03T17:40:06;7.50;1.00
9949;DHT22;5013;51.840;8.276;2023-04-03T17:42:32;7.50;1.00
9949;DHT22;5013;51.840;8.276;2023-04-03T17:44:57;7.50;1.00
9949;DHT22;5013;51.840;8.276;2023-04-03T17:47:25;7.40;1.00
9949;DHT22;5013;51.840;8.276;2023-04-03T17:49:51;7.30;1.00
9949;DHT22;5013;51.840;8.276;2023-04-03T17:52:16;7.30;1.00
9949;DHT22;5013;51.840;8.276;2023-04-03T17:54:42;7.20;1.00
9949;DHT22;5013;51.840;8.276;2023-04-03T17:57:07;7.20;1.00
9949;DHT22;5013;51.840;8.276;2023-04-03T17:59:33;7.10;1.00
9949;DHT22;5013;51.840;8.276;2023-04-03T18:01:59;7.00;1.00
9949;DHT22;5013;51.840;8.276;2023-04-03T18:04:25;7.00;1.00